createdAt,value
2023-07-18T00:01:19.429Z,2.50
2023-07-18T00:03:52.632Z,2.40
2023-07-18T00:06:25.986Z,2.37
2023-07-18T00:08:58.625Z,2.27
2023-07-18T00:11:31.378Z,2.27
2023-07-18T00:14:05.836Z,2.77
2023-07-18T00:16:38.426Z,2.53
2023-07-18T00:19:11.165Z,2.50
2023-07-18T00:21:45.056Z,2.50
2023-07-18T00:24:20.681Z,2.40
2023-07-18T00:26:53.362Z,2.43
2023-07-18T00:29:29.951Z,2.60
2023-07-18T00:32:03.088Z,2.60
2023-07-18T00:34:35.827Z,2.50
2023-07-18T00:37:10.497Z,2.67
2023-07-18T00:39:43.205Z,2.70
2023-07-18T00:42:15.813Z,2.70
2023-07-18T00:44:50.999Z,2.57
2023-07-18T00:47:24.245Z,2.40
2023-07-18T00:49:57.513Z,2.70
2023-07-18T00:52:30.221Z,2.87
2023-07-18T00:55:03.192Z,2.87
2023-07-18T00:57:36.589Z,2.57
2023-07-18T01:00:13.299Z,2.73
2023-07-18T01:02:46.456Z,2.70
2023-07-18T01:05:19.877Z,3.20
2023-07-18T01:07:52.624Z,2.90
2023-07-18T01:10:26.305Z,2.57
2023-07-18T01:13:00.010Z,2.50
2023-07-18T01:15:34.854Z,2.70
2023-07-18T01:18:10.240Z,2.73
2023-07-18T01:20:45.629Z,2.73
2023-07-18T01:23:21.244Z,2.53
2023-07-18T01:25:54.082Z,2.80
2023-07-18T01:28:26.744Z,2.90
2023-07-18T01:30:59.463Z,2.93
2023-07-18T01:33:32.536Z,2.73
2023-07-18T01:36:05.410Z,2.60
2023-07-18T01:38:39.422Z,3.07
2023-07-18T01:41:12.048Z,2.90
2023-07-18T01:43:44.819Z,2.73
2023-07-18T01:46:17.462Z,2.97
2023-07-18T01:48:50.055Z,3.37
2023-07-18T01:51:22.925Z,2.97
2023-07-18T01:53:57.275Z,3.20
2023-07-18T01:56:30.341Z,3.10
2023-07-18T01:59:05.373Z,2.80
2023-07-18T02:01:38.254Z,3.10
2023-07-18T02:04:10.986Z,2.97
2023-07-18T02:06:43.644Z,3.60
2023-07-18T02:09:17.622Z,3.50
2023-07-18T02:11:50.312Z,3.00
2023-07-18T02:14:23.056Z,2.93
2023-07-18T02:16:57.920Z,3.20
2023-07-18T02:19:30.630Z,2.97
2023-07-18T02:22:05.623Z,2.70
2023-07-18T02:24:40.027Z,2.97
2023-07-18T02:27:12.950Z,2.90
2023-07-18T02:29:47.717Z,3.13
2023-07-18T02:32:23.143Z,3.00
2023-07-18T02:34:59.329Z,3.10
2023-07-18T02:37:32.008Z,2.90
2023-07-18T02:40:11.073Z,3.03
2023-07-18T02:42:44.072Z,2.90
2023-07-18T02:45:17.348Z,3.10
2023-07-18T02:47:50.240Z,3.13
2023-07-18T02:50:22.903Z,2.90
2023-07-18T02:52:59.580Z,3.70
2023-07-18T02:55:34.089Z,3.67
2023-07-18T02:58:09.160Z,3.30
2023-07-18T03:00:44.861Z,3.53
2023-07-18T03:03:17.658Z,3.77
2023-07-18T03:05:54.400Z,3.57
2023-07-18T03:08:27.348Z,3.27
2023-07-18T03:11:01.770Z,3.63
2023-07-18T03:13:34.555Z,3.53
2023-07-18T03:16:08.573Z,3.23
2023-07-18T03:18:43.091Z,3.63
2023-07-18T03:21:17.729Z,3.40
2023-07-18T03:23:50.834Z,3.17
2023-07-18T03:26:24.911Z,3.23
2023-07-18T03:29:02.977Z,3.67
2023-07-18T03:31:37.317Z,3.67
2023-07-18T03:34:11.070Z,3.73
2023-07-18T03:36:43.715Z,3.37
2023-07-18T03:39:17.062Z,3.80
2023-07-18T03:41:51.162Z,3.70
2023-07-18T03:44:24.115Z,3.50
2023-07-18T03:47:10.738Z,3.80
2023-07-18T03:49:49.160Z,3.60
2023-07-18T03:52:21.866Z,3.90
2023-07-18T03:54:54.520Z,4.00
2023-07-18T03:57:29.030Z,4.10
2023-07-18T04:00:01.693Z,4.30
2023-07-18T04:02:34.713Z,4.00
2023-07-18T04:05:07.814Z,4.07
2023-07-18T04:07:40.550Z,4.50
2023-07-18T04:10:13.890Z,3.70
2023-07-18T04:12:47.868Z,4.30
2023-07-18T04:15:20.494Z,4.07
2023-07-18T04:17:53.171Z,4.27
2023-07-18T04:20:25.941Z,3.83
2023-07-18T04:22:58.994Z,4.30
2023-07-18T04:25:35.373Z,3.80
2023-07-18T04:28:11.556Z,4.60
2023-07-18T04:30:45.465Z,3.90
2023-07-18T04:33:18.085Z,4.30
2023-07-18T04:35:50.700Z,4.67
2023-07-18T04:38:23.378Z,4.30
2023-07-18T04:40:59.007Z,4.40
2023-07-18T04:43:33.064Z,3.80
2023-07-18T04:46:06.141Z,3.63
2023-07-18T04:48:39.437Z,4.27
2023-07-18T04:51:12.197Z,4.20
2023-07-18T04:53:47.285Z,4.20
2023-07-18T04:56:19.998Z,3.70
2023-07-18T04:58:54.194Z,4.47
2023-07-18T05:01:27.930Z,4.13
2023-07-18T05:04:00.666Z,3.93
2023-07-18T05:06:35.526Z,4.27
2023-07-18T05:09:10.959Z,4.17
2023-07-18T05:11:43.597Z,3.67
2023-07-18T05:14:17.583Z,3.83
2023-07-18T05:16:50.299Z,4.23
2023-07-18T05:19:26.312Z,3.87
2023-07-18T05:21:59.026Z,4.37
2023-07-18T05:24:31.625Z,3.70
2023-07-18T05:27:04.449Z,4.23
2023-07-18T05:29:38.599Z,4.10
2023-07-18T05:32:11.337Z,4.00
2023-07-18T05:34:44.771Z,3.77
2023-07-18T05:37:17.561Z,4.27
2023-07-18T05:39:50.218Z,4.37
2023-07-18T05:42:23.003Z,4.80
2023-07-18T05:44:57.077Z,4.37
2023-07-18T05:47:30.057Z,4.17
2023-07-18T05:50:02.771Z,5.07
2023-07-18T05:52:35.791Z,3.93
2023-07-18T05:55:09.302Z,5.20
2023-07-18T05:57:42.001Z,4.40
2023-07-18T06:00:17.110Z,4.23
2023-07-18T06:02:49.898Z,4.60
2023-07-18T06:05:26.796Z,4.40
2023-07-18T06:07:59.491Z,4.43
2023-07-18T06:10:32.153Z,4.17
2023-07-18T06:13:06.277Z,4.63
2023-07-18T06:15:40.358Z,3.83
2023-07-18T06:18:12.989Z,4.67
2023-07-18T06:20:46.496Z,4.47
2023-07-18T06:23:21.775Z,4.33
2023-07-18T06:25:55.602Z,3.80
2023-07-18T06:28:29.541Z,3.93
2023-07-18T06:31:04.145Z,4.67
2023-07-18T06:33:37.035Z,4.83
2023-07-18T06:36:09.928Z,4.00
2023-07-18T06:38:45.474Z,4.23
2023-07-18T06:41:18.390Z,4.20
2023-07-18T06:43:51.441Z,4.97
2023-07-18T06:46:25.519Z,4.23
2023-07-18T06:48:58.134Z,4.20
2023-07-18T06:51:30.997Z,4.30
2023-07-18T06:54:04.010Z,3.83
2023-07-18T06:56:38.244Z,4.10
2023-07-18T06:59:11.307Z,4.53
2023-07-18T07:01:45.497Z,3.60
2023-07-18T07:04:20.790Z,3.80
2023-07-18T07:06:53.615Z,4.90
2023-07-18T07:09:27.008Z,4.10
2023-07-18T07:12:01.736Z,3.70
2023-07-18T07:14:34.424Z,3.80
2023-07-18T07:17:09.548Z,4.07
2023-07-18T07:19:42.428Z,4.00
2023-07-18T07:22:15.850Z,3.73
2023-07-18T07:24:49.138Z,3.80
2023-07-18T07:27:21.770Z,3.17
2023-07-18T07:29:54.505Z,3.37
2023-07-18T07:32:28.633Z,3.23
2023-07-18T07:35:10.442Z,3.37
2023-07-18T07:37:43.023Z,4.17
2023-07-18T07:40:16.787Z,3.73
2023-07-18T07:42:49.703Z,4.23
2023-07-18T07:45:22.964Z,3.53
2023-07-18T07:47:57.243Z,4.00
2023-07-18T07:50:32.129Z,3.93
2023-07-18T07:53:08.088Z,3.77
2023-07-18T07:55:41.647Z,3.73
2023-07-18T07:58:16.480Z,3.33
2023-07-18T08:00:49.263Z,3.40
2023-07-18T08:03:23.305Z,3.80
2023-07-18T08:05:59.346Z,3.47
2023-07-18T08:08:32.245Z,3.67
2023-07-18T08:11:05.271Z,3.87
2023-07-18T08:13:37.934Z,3.77
2023-07-18T08:16:10.864Z,3.97
2023-07-18T08:18:47.909Z,3.30
2023-07-18T08:21:21.022Z,3.63
2023-07-18T08:23:54.118Z,3.40
2023-07-18T08:26:26.828Z,3.23
2023-07-18T08:28:59.656Z,2.97
2023-07-18T08:31:32.475Z,3.77
2023-07-18T08:34:09.664Z,3.10
2023-07-18T08:36:43.214Z,3.70
2023-07-18T08:39:16.159Z,4.03
2023-07-18T08:41:50.404Z,3.40
2023-07-18T08:44:23.920Z,3.27
2023-07-18T08:47:01.876Z,2.87
2023-07-18T08:49:37.130Z,2.70
2023-07-18T08:52:10.184Z,3.10
2023-07-18T08:54:42.923Z,2.80
2023-07-18T08:57:16.005Z,2.90
2023-07-18T08:59:49.026Z,2.67
2023-07-18T09:02:21.792Z,2.60
2023-07-18T09:04:58.954Z,2.23
2023-07-18T09:07:38.004Z,2.90
2023-07-18T09:10:10.964Z,2.70
2023-07-18T09:12:43.615Z,2.33
2023-07-18T09:15:22.647Z,2.50
2023-07-18T09:17:55.725Z,2.73
2023-07-18T09:20:30.569Z,4.30
2023-07-18T09:23:04.750Z,2.33
2023-07-18T09:25:41.140Z,3.43
2023-07-18T09:28:13.961Z,2.97
2023-07-18T09:30:46.616Z,6.03
2023-07-18T09:33:25.977Z,2.40
2023-07-18T09:36:00.314Z,2.10
2023-07-18T09:38:33.700Z,2.27
2023-07-18T09:41:06.501Z,2.20
2023-07-18T09:43:39.825Z,2.67
2023-07-18T09:46:13.258Z,2.90
2023-07-18T09:48:48.616Z,2.00
2023-07-18T09:51:24.332Z,2.43
2023-07-18T09:53:57.888Z,2.20
2023-07-18T09:56:33.007Z,2.40
2023-07-18T09:59:09.599Z,2.23
2023-07-18T10:01:43.704Z,2.80
2023-07-18T10:04:22.115Z,2.60
2023-07-18T10:06:57.579Z,2.30
2023-07-18T10:09:31.004Z,2.17
2023-07-18T10:12:12.974Z,2.20
2023-07-18T10:14:54.027Z,3.43
2023-07-18T10:17:31.185Z,1.93
2023-07-18T10:20:06.741Z,2.10
2023-07-18T10:22:47.885Z,2.20
2023-07-18T10:25:20.979Z,2.70
2023-07-18T10:27:53.654Z,2.17
2023-07-18T10:30:26.952Z,2.33
2023-07-18T10:33:00.187Z,2.20
2023-07-18T10:35:34.094Z,2.10
2023-07-18T10:38:08.347Z,1.90
2023-07-18T10:40:42.185Z,2.50
2023-07-18T10:43:20.150Z,2.07
2023-07-18T10:45:53.952Z,2.03
2023-07-18T10:48:26.858Z,2.60
2023-07-18T10:51:00.223Z,2.27
2023-07-18T10:53:36.499Z,2.30
2023-07-18T10:56:09.201Z,1.67
2023-07-18T10:58:41.933Z,2.40
2023-07-18T11:01:14.806Z,2.10
2023-07-18T11:03:47.762Z,2.07
2023-07-18T11:06:22.686Z,1.83
2023-07-18T11:08:59.247Z,2.10
2023-07-18T11:11:32.106Z,2.20
2023-07-18T11:14:08.905Z,2.03
2023-07-18T11:16:41.750Z,2.10
2023-07-18T11:19:15.165Z,2.00
2023-07-18T11:21:48.318Z,2.10
2023-07-18T11:24:24.311Z,2.13
2023-07-18T11:27:11.884Z,4.43
2023-07-18T11:29:51.609Z,2.20
2023-07-18T11:32:36.941Z,1.93
2023-07-18T11:35:14.960Z,1.97
2023-07-18T11:37:49.354Z,4.00
2023-07-18T11:40:29.343Z,2.80
2023-07-18T11:43:05.739Z,2.10
2023-07-18T11:45:38.726Z,2.07
2023-07-18T11:48:13.890Z,2.07
2023-07-18T11:50:50.405Z,2.20
2023-07-18T11:53:27.511Z,2.10
2023-07-18T11:56:01.519Z,2.13
2023-07-18T11:58:34.301Z,2.17
2023-07-18T12:01:06.950Z,2.30
2023-07-18T12:03:42.255Z,1.93
2023-07-18T12:06:14.975Z,2.10
2023-07-18T12:08:47.993Z,2.10
2023-07-18T12:11:23.169Z,2.40
2023-07-18T12:13:57.649Z,2.00
2023-07-18T12:16:32.739Z,2.40
2023-07-18T12:19:05.568Z,2.10
2023-07-18T12:21:38.272Z,2.60
2023-07-18T12:24:11.003Z,1.73
2023-07-18T12:26:46.177Z,2.03
2023-07-18T12:29:19.716Z,1.70
2023-07-18T12:31:53.254Z,1.80
2023-07-18T12:34:28.760Z,2.23
2023-07-18T12:37:02.941Z,1.73
2023-07-18T12:39:35.740Z,2.20
2023-07-18T12:42:10.275Z,2.50
2023-07-18T12:44:43.664Z,2.37
2023-07-18T12:47:16.296Z,2.10
2023-07-18T12:52:24.700Z,2.43
2023-07-18T12:54:57.760Z,2.27
2023-07-18T12:57:32.681Z,2.57
2023-07-18T13:00:06.522Z,2.33
2023-07-18T13:02:39.473Z,2.00
2023-07-18T13:05:12.252Z,2.53
2023-07-18T13:07:45.123Z,1.90
2023-07-18T13:10:18.356Z,2.20
2023-07-18T13:12:56.913Z,2.00
2023-07-18T13:15:29.763Z,2.10
2023-07-18T13:18:09.642Z,1.90
2023-07-18T13:20:42.717Z,2.00
2023-07-18T13:23:15.633Z,1.80
2023-07-18T13:25:49.705Z,1.97
2023-07-18T13:28:23.902Z,2.00
2023-07-18T13:30:57.029Z,2.60
2023-07-18T13:33:29.922Z,2.07
2023-07-18T13:36:02.892Z,2.10
2023-07-18T13:38:35.675Z,2.13
2023-07-18T13:41:09.246Z,1.73
2023-07-18T13:43:44.059Z,2.07
2023-07-18T13:46:20.144Z,1.90
2023-07-18T13:48:53.064Z,1.50
2023-07-18T13:51:26.142Z,1.90
2023-07-18T13:53:58.923Z,1.93
2023-07-18T13:56:34.672Z,1.93
2023-07-18T13:59:09.210Z,1.77
2023-07-18T14:01:42.005Z,1.77
2023-07-18T14:04:18.981Z,1.90
2023-07-18T14:06:51.772Z,1.70
2023-07-18T14:09:27.291Z,1.70
2023-07-18T14:12:00.929Z,2.90
2023-07-18T14:14:36.577Z,2.20
2023-07-18T14:17:09.349Z,1.60
2023-07-18T14:19:42.091Z,1.50
2023-07-18T14:22:17.782Z,1.90
2023-07-18T14:24:51.284Z,1.70
2023-07-18T14:27:24.221Z,1.70
2023-07-18T14:29:58.992Z,1.90
2023-07-18T14:32:32.386Z,1.70
2023-07-18T14:35:05.401Z,1.70
2023-07-18T14:37:38.303Z,1.50
2023-07-18T14:40:11.417Z,1.77
2023-07-18T14:42:46.531Z,1.93
2023-07-18T14:45:20.886Z,1.80
2023-07-18T14:47:53.968Z,1.90
2023-07-18T14:50:26.937Z,2.60
2023-07-18T14:52:59.940Z,1.40
2023-07-18T14:55:35.217Z,2.65
2023-07-18T14:58:08.428Z,1.80
2023-07-18T15:00:42.600Z,5.30
2023-07-18T15:03:15.485Z,2.47
2023-07-18T15:05:48.286Z,2.10
2023-07-18T15:08:21.167Z,1.70
2023-07-18T15:10:53.850Z,1.50
2023-07-18T15:13:26.508Z,1.70
2023-07-18T15:16:00.866Z,1.80
2023-07-18T15:18:33.801Z,2.27
2023-07-18T15:21:10.822Z,2.00
2023-07-18T15:23:44.688Z,1.43
2023-07-18T15:26:17.824Z,1.80
2023-07-18T15:28:51.086Z,1.90
2023-07-18T15:31:25.122Z,2.17
2023-07-18T15:34:00.343Z,1.80
2023-07-18T15:36:33.609Z,2.60
2023-07-18T15:39:07.720Z,1.43
2023-07-18T15:41:40.412Z,1.37
2023-07-18T15:44:13.263Z,1.70
2023-07-18T15:46:47.425Z,1.70
2023-07-18T15:49:20.323Z,1.75
2023-07-18T15:51:55.974Z,2.10
2023-07-18T15:54:28.815Z,2.17
2023-07-18T15:57:01.622Z,1.42
2023-07-18T15:59:34.340Z,1.83
2023-07-18T16:02:09.572Z,1.55
2023-07-18T16:04:42.511Z,1.90
2023-07-18T16:07:15.729Z,1.80
2023-07-18T16:09:49.154Z,2.00
2023-07-18T16:12:21.806Z,1.87
2023-07-18T16:14:54.675Z,1.60
2023-07-18T16:17:29.126Z,1.70
2023-07-18T16:20:03.017Z,1.63
2023-07-18T16:22:35.787Z,2.93
2023-07-18T16:25:11.948Z,2.07
2023-07-18T16:27:44.758Z,1.50
2023-07-18T16:30:17.800Z,1.80
2023-07-18T16:32:51.918Z,1.07
2023-07-18T16:35:24.741Z,1.60
2023-07-18T16:37:57.501Z,2.13
2023-07-18T16:40:30.366Z,1.20
2023-07-18T16:43:08.796Z,1.80
2023-07-18T16:45:41.504Z,1.50
2023-07-18T16:48:18.660Z,1.20
2023-07-18T16:50:51.360Z,1.90
2023-07-18T16:53:26.315Z,1.53
2023-07-18T16:55:59.068Z,1.60
2023-07-18T16:58:31.770Z,2.40
2023-07-18T17:01:07.109Z,1.80
2023-07-18T17:03:41.240Z,1.70
2023-07-18T17:06:13.878Z,1.63
2023-07-18T17:08:46.605Z,1.97
2023-07-18T17:11:19.392Z,2.00
2023-07-18T17:13:52.788Z,1.80
2023-07-18T17:16:25.589Z,1.90
2023-07-18T17:18:59.614Z,1.40
2023-07-18T17:21:32.312Z,1.57
2023-07-18T17:24:09.641Z,1.20
2023-07-18T17:26:42.568Z,2.10
2023-07-18T17:29:15.611Z,2.13
2023-07-18T17:31:48.239Z,1.50
2023-07-18T17:34:22.312Z,1.27
2023-07-18T17:36:57.684Z,1.87
2023-07-18T17:39:30.730Z,1.73
2023-07-18T17:42:05.635Z,1.53
2023-07-18T17:44:40.961Z,2.07
2023-07-18T17:47:15.131Z,1.43
2023-07-18T17:49:50.378Z,1.63
2023-07-18T17:52:23.313Z,1.83
2023-07-18T17:54:55.859Z,1.50
2023-07-18T17:57:28.729Z,1.90
2023-07-18T18:00:01.385Z,1.30
2023-07-18T18:02:34.358Z,1.60
2023-07-18T18:05:22.449Z,1.60
2023-07-18T18:07:56.475Z,1.50
2023-07-18T18:10:32.310Z,1.53
2023-07-18T18:13:04.985Z,2.13
2023-07-18T18:15:41.166Z,1.83
2023-07-18T18:18:20.884Z,1.90
2023-07-18T18:20:53.575Z,1.80
2023-07-18T18:23:38.611Z,1.77
2023-07-18T18:26:13.365Z,1.67
2023-07-18T18:28:48.856Z,1.50
2023-07-18T18:31:21.802Z,1.80
2023-07-18T18:33:54.826Z,2.07
2023-07-18T18:36:27.475Z,1.93
2023-07-18T18:39:01.818Z,1.80
2023-07-18T18:41:34.589Z,1.80
2023-07-18T18:44:07.576Z,1.87
2023-07-18T18:46:40.299Z,2.10
2023-07-18T18:49:25.946Z,2.00
2023-07-18T18:51:59.726Z,1.83
2023-07-18T18:54:34.023Z,2.00
2023-07-18T18:57:08.814Z,2.87
2023-07-18T18:59:41.448Z,2.27
2023-07-18T19:02:15.328Z,2.20
2023-07-18T19:04:48.883Z,2.17
2023-07-18T19:07:23.088Z,2.73
2023-07-18T19:09:58.425Z,2.00
2023-07-18T19:12:31.260Z,2.30
2023-07-18T19:15:04.140Z,2.03
2023-07-18T19:17:36.906Z,2.27
2023-07-18T19:20:10.378Z,2.37
2023-07-18T19:22:43.182Z,2.20
2023-07-18T19:25:18.682Z,2.03
2023-07-18T19:27:51.256Z,2.60
2023-07-18T19:30:24.213Z,2.37
2023-07-18T19:32:56.919Z,2.30
2023-07-18T19:35:30.069Z,2.17
2023-07-18T19:38:03.689Z,2.83
2023-07-18T19:40:37.724Z,2.47
2023-07-18T19:43:10.359Z,2.70
2023-07-18T19:45:43.061Z,2.87
2023-07-18T19:48:15.752Z,2.50
2023-07-18T19:50:48.434Z,2.90
2023-07-18T19:53:21.201Z,3.10
2023-07-18T19:55:55.983Z,3.00
2023-07-18T19:58:29.708Z,3.53
2023-07-18T20:01:02.417Z,3.30
2023-07-18T20:03:47.990Z,3.80
2023-07-18T20:06:28.357Z,3.43
2023-07-18T20:09:01.220Z,3.70
2023-07-18T20:11:35.308Z,3.70
2023-07-18T20:14:10.736Z,4.13
2023-07-18T20:16:43.590Z,3.63
2023-07-18T20:19:16.184Z,4.13
2023-07-18T20:21:48.816Z,4.57
2023-07-18T20:24:21.513Z,4.90
2023-07-18T20:26:55.998Z,4.83
2023-07-18T20:29:28.786Z,5.47
2023-07-18T20:32:01.805Z,5.23
2023-07-18T20:34:34.619Z,4.77
2023-07-18T20:37:07.776Z,5.00
2023-07-18T20:39:40.516Z,4.50
2023-07-18T20:42:14.483Z,4.80
2023-07-18T20:44:47.442Z,4.97
2023-07-18T20:47:20.153Z,5.20
2023-07-18T20:49:52.688Z,5.17
2023-07-18T20:52:27.498Z,5.57
2023-07-18T20:55:00.334Z,5.33
2023-07-18T20:57:34.417Z,5.10
2023-07-18T21:00:11.048Z,5.50
2023-07-18T21:02:44.285Z,5.20
2023-07-18T21:05:19.364Z,5.17
2023-07-18T21:07:52.079Z,5.13
2023-07-18T21:10:24.759Z,6.00
2023-07-18T21:12:58.816Z,5.07
2023-07-18T21:15:31.800Z,5.10
2023-07-18T21:18:05.104Z,4.93
2023-07-18T21:20:37.838Z,5.40
2023-07-18T21:23:10.519Z,5.70
2023-07-18T21:25:43.921Z,6.23
2023-07-18T21:28:18.168Z,5.50
2023-07-18T21:30:51.044Z,5.60
2023-07-18T21:33:24.027Z,5.70
2023-07-18T21:35:57.228Z,5.83
2023-07-18T21:38:30.244Z,5.60
2023-07-18T21:41:03.213Z,5.83
2023-07-18T21:43:37.338Z,6.33
2023-07-18T21:46:10.265Z,6.17
2023-07-18T21:48:43.243Z,6.43
2023-07-18T21:51:15.853Z,6.30
2023-07-18T21:53:50.999Z,6.60
2023-07-18T21:56:27.559Z,6.03
2023-07-18T21:59:01.712Z,6.03
2023-07-18T22:01:34.407Z,7.17
2023-07-18T22:04:08.839Z,6.67
2023-07-18T22:06:41.621Z,6.27
2023-07-18T22:09:14.366Z,6.00
2023-07-18T22:11:47.879Z,6.50
2023-07-18T22:14:22.060Z,6.70
2023-07-18T22:16:56.973Z,6.37
2023-07-18T22:19:29.660Z,6.83
2023-07-18T22:22:05.063Z,6.60
2023-07-18T22:24:38.074Z,7.00
2023-07-18T22:27:10.714Z,6.40
2023-07-18T22:29:46.287Z,6.67
2023-07-18T22:32:18.893Z,6.30
2023-07-18T22:34:51.478Z,6.70
2023-07-18T22:37:25.337Z,7.43
2023-07-18T22:40:03.877Z,7.27
2023-07-18T22:42:40.868Z,6.80
2023-07-18T22:45:14.880Z,5.57
2023-07-18T22:47:50.684Z,6.57
2023-07-18T22:50:24.021Z,6.80
2023-07-18T22:52:57.196Z,7.17
2023-07-18T22:55:31.026Z,6.80
2023-07-18T22:58:03.677Z,6.67
2023-07-18T23:00:37.772Z,6.67
2023-07-18T23:03:10.817Z,6.80
2023-07-18T23:05:43.586Z,7.17
2023-07-18T23:08:16.234Z,7.10
2023-07-18T23:10:49.796Z,6.50
2023-07-18T23:13:22.409Z,7.20
2023-07-18T23:15:56.478Z,6.40
2023-07-18T23:18:31.547Z,6.77
2023-07-18T23:21:05.820Z,6.63
2023-07-18T23:23:38.621Z,6.83
2023-07-18T23:26:11.354Z,6.97
2023-07-18T23:28:44.129Z,6.93
2023-07-18T23:31:21.528Z,6.60
2023-07-18T23:33:54.474Z,6.63
2023-07-18T23:36:27.195Z,6.87
2023-07-18T23:38:59.839Z,6.97
2023-07-18T23:41:32.494Z,7.03
2023-07-18T23:44:05.295Z,7.27
2023-07-18T23:46:39.446Z,7.40
2023-07-18T23:49:17.396Z,6.50
2023-07-18T23:51:50.162Z,6.83
2023-07-18T23:54:22.897Z,6.63
2023-07-18T23:56:56.833Z,7.07
2023-07-18T23:59:29.564Z,7.13
